sensor_id;sensor_type;location;lat;lon;timestamp;P1;durP1;ratioP1;P2;durP2;ratioP2
32329;SDS011;18807;52.434;13.238;2022-09-01T00:05:24;0.82;;;0.50;;
32329;SDS011;18807;52.434;13.238;2022-09-01T00:12:58;1.92;;;0.65;;
32329;SDS011;18807;52.434;13.238;2022-09-01T00:20:33;2.15;;;0.57;;
32329;SDS011;18807;52.434;13.238;2022-09-01T00:28:07;1.05;;;0.50;;
32329;SDS011;18807;52.434;13.238;2022-09-01T00:35:42;1.30;;;0.60;;
32329;SDS011;18807;52.434;13.238;2022-09-01T00:43:17;1.15;;;0.50;;
32329;SDS011;18807;52.434;13.238;2022-09-01T00:50:55;0.75;;;0.50;;
32329;SDS011;18807;52.434;13.238;2022-09-01T00:58:29;0.70;;;0.60;;
32329;SDS011;18807;52.434;13.238;2022-09-01T01:06:06;1.17;;;0.45;;
32329;SDS011;18807;52.434;13.238;2022-09-01T01:13:48;0.57;;;0.57;;
32329;SDS011;18807;52.434;13.238;2022-09-01T01:21:27;1.08;;;0.88;;
32329;SDS011;18807;52.434;13.238;2022-09-01T01:29:25;0.90;;;0.60;;
32329;SDS011;18807;52.434;13.238;2022-09-01T01:37:03;0.68;;;0.40;;
32329;SDS011;18807;52.434;13.238;2022-09-01T01:44:39;0.68;;;0.50;;
32329;SDS011;18807;52.434;13.238;2022-09-01T01:52:13;0.57;;;0.47;;
32329;SDS011;18807;52.434;13.238;2022-09-01T01:59:49;1.13;;;0.60;;
32329;SDS011;18807;52.434;13.238;2022-09-01T02:07:25;0.30;;;0.30;;
32329;SDS011;18807;52.434;13.238;2022-09-01T02:15:06;1.02;;;0.50;;
32329;SDS011;18807;52.434;13.238;2022-09-01T02:22:40;0.85;;;0.55;;
32329;SDS011;18807;52.434;13.238;2022-09-01T02:30:17;2.95;;;0.65;;
32329;SDS011;18807;52.434;13.238;2022-09-01T02:37:51;5.18;;;0.60;;
32329;SDS011;18807;52.434;13.238;2022-09-01T02:45:28;0.40;;;0.40;;
32329;SDS011;18807;52.434;13.238;2022-09-01T02:53:02;2.40;;;0.63;;
32329;SDS011;18807;52.434;13.238;2022-09-01T03:00:42;0.98;;;0.50;;
32329;SDS011;18807;52.434;13.238;2022-09-01T03:08:16;1.10;;;0.75;;
32329;SDS011;18807;52.434;13.238;2022-09-01T03:15:51;0.65;;;0.60;;
32329;SDS011;18807;52.434;13.238;2022-09-01T03:23:25;1.35;;;0.40;;
32329;SDS011;18807;52.434;13.238;2022-09-01T03:31:00;2.85;;;0.68;;
32329;SDS011;18807;52.434;13.238;2022-09-01T03:46:09;0.95;;;0.52;;
32329;SDS011;18807;52.434;13.238;2022-09-01T03:53:49;1.70;;;0.57;;
32329;SDS011;18807;52.434;13.238;2022-09-01T04:01:27;1.65;;;0.63;;
32329;SDS011;18807;52.434;13.238;2022-09-01T04:09:04;1.02;;;0.80;;
32329;SDS011;18807;52.434;13.238;2022-09-01T04:16:39;1.00;;;0.70;;
32329;SDS011;18807;52.434;13.238;2022-09-01T04:24:32;1.77;;;0.82;;
32329;SDS011;18807;52.434;13.238;2022-09-01T04:32:08;3.17;;;0.98;;
32329;SDS011;18807;52.434;13.238;2022-09-01T04:39:47;1.38;;;0.88;;
32329;SDS011;18807;52.434;13.238;2022-09-01T04:47:29;1.58;;;1.48;;
32329;SDS011;18807;52.434;13.238;2022-09-01T04:55:08;1.70;;;1.13;;
32329;SDS011;18807;52.434;13.238;2022-09-01T05:02:51;2.78;;;1.58;;
32329;SDS011;18807;52.434;13.238;2022-09-01T05:10:26;2.28;;;1.20;;
32329;SDS011;18807;52.434;13.238;2022-09-01T05:18:02;3.87;;;1.60;;
32329;SDS011;18807;52.434;13.238;2022-09-01T05:25:41;2.13;;;1.45;;
32329;SDS011;18807;52.434;13.238;2022-09-01T05:33:18;2.30;;;1.40;;
32329;SDS011;18807;52.434;13.238;2022-09-01T05:40:56;1.45;;;1.33;;
32329;SDS011;18807;52.434;13.238;2022-09-01T05:48:34;1.60;;;1.38;;
32329;SDS011;18807;52.434;13.238;2022-09-01T05:56:11;3.55;;;1.33;;
32329;SDS011;18807;52.434;13.238;2022-09-01T06:03:48;1.10;;;0.93;;
32329;SDS011;18807;52.434;13.238;2022-09-01T06:11:26;4.38;;;1.40;;
32329;SDS011;18807;52.434;13.238;2022-09-01T06:19:05;1.95;;;1.05;;
32329;SDS011;18807;52.434;13.238;2022-09-01T06:34:14;2.60;;;0.90;;
32329;SDS011;18807;52.434;13.238;2022-09-01T06:41:49;2.13;;;0.90;;
32329;SDS011;18807;52.434;13.238;2022-09-01T06:49:26;2.78;;;0.82;;
32329;SDS011;18807;52.434;13.238;2022-09-01T06:57:04;1.63;;;0.80;;
32329;SDS011;18807;52.434;13.238;2022-09-01T07:05:00;1.83;;;0.95;;
32329;SDS011;18807;52.434;13.238;2022-09-01T07:12:34;0.88;;;0.60;;
32329;SDS011;18807;52.434;13.238;2022-09-01T07:20:10;2.13;;;0.73;;
32329;SDS011;18807;52.434;13.238;2022-09-01T07:28:02;2.03;;;0.85;;
32329;SDS011;18807;52.434;13.238;2022-09-01T07:35:38;0.70;;;0.60;;
32329;SDS011;18807;52.434;13.238;2022-09-01T07:43:33;1.15;;;0.70;;
32329;SDS011;18807;52.434;13.238;2022-09-01T07:51:10;0.65;;;0.47;;
32329;SDS011;18807;52.434;13.238;2022-09-01T07:59:05;2.47;;;0.73;;
32329;SDS011;18807;52.434;13.238;2022-09-01T08:06:48;1.75;;;0.65;;
32329;SDS011;18807;52.434;13.238;2022-09-01T08:14:21;2.25;;;0.70;;
32329;SDS011;18807;52.434;13.238;2022-09-01T08:21:57;1.75;;;0.60;;
32329;SDS011;18807;52.434;13.238;2022-09-01T08:29:31;3.20;;;0.77;;
32329;SDS011;18807;52.434;13.238;2022-09-01T08:37:06;1.42;;;0.73;;
32329;SDS011;18807;52.434;13.238;2022-09-01T08:52:21;2.05;;;0.73;;
32329;SDS011;18807;52.434;13.238;2022-09-01T08:59:59;1.15;;;0.60;;
32329;SDS011;18807;52.434;13.238;2022-09-01T09:07:48;1.47;;;1.00;;
32329;SDS011;18807;52.434;13.238;2022-09-01T09:15:39;0.83;;;0.40;;
32329;SDS011;18807;52.434;13.238;2022-09-01T09:23:19;1.30;;;0.68;;
32329;SDS011;18807;52.434;13.238;2022-09-01T09:31:23;1.45;;;0.55;;
32329;SDS011;18807;52.434;13.238;2022-09-01T09:39:05;2.85;;;0.70;;
32329;SDS011;18807;52.434;13.238;2022-09-01T09:46:42;0.70;;;0.50;;
32329;SDS011;18807;52.434;13.238;2022-09-01T09:54:22;2.28;;;0.60;;
32329;SDS011;18807;52.434;13.238;2022-09-01T10:01:57;1.48;;;0.57;;
32329;SDS011;18807;52.434;13.238;2022-09-01T10:09:35;1.38;;;0.55;;
32329;SDS011;18807;52.434;13.238;2022-09-01T10:17:11;2.05;;;0.60;;
32329;SDS011;18807;52.434;13.238;2022-09-01T10:24:49;2.17;;;0.50;;
32329;SDS011;18807;52.434;13.238;2022-09-01T10:32:25;1.38;;;0.73;;
32329;SDS011;18807;52.434;13.238;2022-09-01T10:40:16;1.42;;;0.40;;
32329;SDS011;18807;52.434;13.238;2022-09-01T10:56:06;1.63;;;0.47;;
32329;SDS011;18807;52.434;13.238;2022-09-01T11:03:56;0.40;;;0.40;;
32329;SDS011;18807;52.434;13.238;2022-09-01T11:11:34;0.70;;;0.40;;
32329;SDS011;18807;52.434;13.238;2022-09-01T11:19:31;0.95;;;0.45;;
32329;SDS011;18807;52.434;13.238;2022-09-01T11:27:12;3.25;;;0.60;;
32329;SDS011;18807;52.434;13.238;2022-09-01T11:35:25;1.33;;;0.40;;
32329;SDS011;18807;52.434;13.238;2022-09-01T11:43:03;0.50;;;0.40;;
32329;SDS011;18807;52.434;13.238;2022-09-01T11:50:55;0.30;;;0.30;;
32329;SDS011;18807;52.434;13.238;2022-09-01T11:58:33;0.40;;;0.35;;
32329;SDS011;18807;52.434;13.238;2022-09-01T12:06:11;0.82;;;0.50;;
32329;SDS011;18807;52.434;13.238;2022-09-01T12:14:00;1.02;;;0.40;;
32329;SDS011;18807;52.434;13.238;2022-09-01T12:21:42;0.28;;;0.28;;
32329;SDS011;18807;52.434;13.238;2022-09-01T12:29:17;0.67;;;0.40;;
32329;SDS011;18807;52.434;13.238;2022-09-01T12:37:01;0.68;;;0.32;;
32329;SDS011;18807;52.434;13.238;2022-09-01T12:44:45;0.88;;;0.35;;
32329;SDS011;18807;52.434;13.238;2022-09-01T12:52:23;0.82;;;0.47;;
32329;SDS011;18807;52.434;13.238;2022-09-01T13:00:13;0.40;;;0.40;;
32329;SDS011;18807;52.434;13.238;2022-09-01T13:07:51;0.82;;;0.60;;
32329;SDS011;18807;52.434;13.238;2022-09-01T13:15:28;2.67;;;0.40;;
32329;SDS011;18807;52.434;13.238;2022-09-01T13:23:03;0.93;;;0.60;;
32329;SDS011;18807;52.434;13.238;2022-09-01T13:30:38;1.70;;;0.50;;
32329;SDS011;18807;52.434;13.238;2022-09-01T13:38:13;0.55;;;0.40;;
32329;SDS011;18807;52.434;13.238;2022-09-01T13:45:49;4.03;;;0.43;;
32329;SDS011;18807;52.434;13.238;2022-09-01T13:53:23;0.73;;;0.30;;
32329;SDS011;18807;52.434;13.238;2022-09-01T14:00:58;2.45;;;0.50;;
32329;SDS011;18807;52.434;13.238;2022-09-01T14:08:33;0.90;;;0.73;;
32329;SDS011;18807;52.434;13.238;2022-09-01T14:16:10;1.45;;;0.50;;
32329;SDS011;18807;52.434;13.238;2022-09-01T14:23:44;1.00;;;0.70;;
32329;SDS011;18807;52.434;13.238;2022-09-01T14:31:20;2.75;;;0.50;;
32329;SDS011;18807;52.434;13.238;2022-09-01T14:38:54;1.35;;;0.47;;
32329;SDS011;18807;52.434;13.238;2022-09-01T14:46:29;0.57;;;0.33;;
32329;SDS011;18807;52.434;13.238;2022-09-01T14:54:05;0.82;;;0.40;;
32329;SDS011;18807;52.434;13.238;2022-09-01T15:01:40;3.05;;;0.60;;
32329;SDS011;18807;52.434;13.238;2022-09-01T15:09:14;0.98;;;0.40;;
32329;SDS011;18807;52.434;13.238;2022-09-01T15:16:51;2.05;;;0.50;;
32329;SDS011;18807;52.434;13.238;2022-09-01T15:24:26;1.85;;;0.70;;
32329;SDS011;18807;52.434;13.238;2022-09-01T15:32:01;1.40;;;0.60;;
32329;SDS011;18807;52.434;13.238;2022-09-01T15:39:35;4.07;;;0.52;;
32329;SDS011;18807;52.434;13.238;2022-09-01T15:47:11;0.75;;;0.50;;
32329;SDS011;18807;52.434;13.238;2022-09-01T15:54:45;0.73;;;0.50;;
32329;SDS011;18807;52.434;13.238;2022-09-01T16:09:58;2.28;;;0.40;;
32329;SDS011;18807;52.434;13.238;2022-09-01T16:17:38;1.27;;;0.40;;
32329;SDS011;18807;52.434;13.238;2022-09-01T16:25:24;2.15;;;0.60;;
32329;SDS011;18807;52.434;13.238;2022-09-01T16:33:02;1.13;;;0.63;;
32329;SDS011;18807;52.434;13.238;2022-09-01T16:40:52;0.80;;;0.50;;
32329;SDS011;18807;52.434;13.238;2022-09-01T16:48:34;0.90;;;0.50;;
32329;SDS011;18807;52.434;13.238;2022-09-01T16:56:20;0.47;;;0.47;;
32329;SDS011;18807;52.434;13.238;2022-09-01T17:04:13;0.37;;;0.37;;
32329;SDS011;18807;52.434;13.238;2022-09-01T17:11:57;2.15;;;0.50;;
32329;SDS011;18807;52.434;13.238;2022-09-01T17:19:45;0.60;;;0.40;;
32329;SDS011;18807;52.434;13.238;2022-09-01T17:27:24;0.98;;;0.60;;
32329;SDS011;18807;52.434;13.238;2022-09-01T17:35:05;3.08;;;1.00;;
32329;SDS011;18807;52.434;13.238;2022-09-01T17:50:29;1.58;;;0.80;;
32329;SDS011;18807;52.434;13.238;2022-09-01T17:58:14;0.55;;;0.55;;
32329;SDS011;18807;52.434;13.238;2022-09-01T18:05:59;1.05;;;0.77;;
32329;SDS011;18807;52.434;13.238;2022-09-01T18:13:38;0.80;;;0.70;;
32329;SDS011;18807;52.434;13.238;2022-09-01T18:21:28;1.38;;;0.88;;
32329;SDS011;18807;52.434;13.238;2022-09-01T18:29:07;1.05;;;0.55;;
32329;SDS011;18807;52.434;13.238;2022-09-01T18:36:43;1.40;;;0.63;;
32329;SDS011;18807;52.434;13.238;2022-09-01T18:44:30;3.37;;;1.20;;
32329;SDS011;18807;52.434;13.238;2022-09-01T18:52:15;1.00;;;0.80;;
32329;SDS011;18807;52.434;13.238;2022-09-01T19:00:03;1.38;;;0.88;;
32329;SDS011;18807;52.434;13.238;2022-09-01T19:07:53;1.15;;;0.80;;
32329;SDS011;18807;52.434;13.238;2022-09-01T19:15:35;1.92;;;1.30;;
32329;SDS011;18807;52.434;13.238;2022-09-01T19:23:18;1.75;;;1.25;;
32329;SDS011;18807;52.434;13.238;2022-09-01T19:30:59;1.80;;;1.08;;
32329;SDS011;18807;52.434;13.238;2022-09-01T19:38:40;3.05;;;1.60;;
32329;SDS011;18807;52.434;13.238;2022-09-01T19:46:18;1.80;;;1.10;;
32329;SDS011;18807;52.434;13.238;2022-09-01T19:54:02;1.08;;;0.98;;
32329;SDS011;18807;52.434;13.238;2022-09-01T20:01:42;2.58;;;2.08;;
32329;SDS011;18807;52.434;13.238;2022-09-01T20:09:22;1.63;;;1.20;;
32329;SDS011;18807;52.434;13.238;2022-09-01T20:17:01;2.33;;;1.30;;
32329;SDS011;18807;52.434;13.238;2022-09-01T20:24:38;3.08;;;1.08;;
32329;SDS011;18807;52.434;13.238;2022-09-01T20:32:13;1.48;;;1.27;;
32329;SDS011;18807;52.434;13.238;2022-09-01T20:40:02;1.25;;;1.15;;
32329;SDS011;18807;52.434;13.238;2022-09-01T20:47:37;1.30;;;1.20;;
32329;SDS011;18807;52.434;13.238;2022-09-01T20:55:13;3.08;;;1.25;;
32329;SDS011;18807;52.434;13.238;2022-09-01T21:02:54;2.72;;;1.67;;
32329;SDS011;18807;52.434;13.238;2022-09-01T21:10:40;2.28;;;1.80;;
32329;SDS011;18807;52.434;13.238;2022-09-01T21:18:26;3.00;;;2.13;;
32329;SDS011;18807;52.434;13.238;2022-09-01T21:26:12;3.13;;;1.40;;
32329;SDS011;18807;52.434;13.238;2022-09-01T21:33:47;2.40;;;1.63;;
32329;SDS011;18807;52.434;13.238;2022-09-01T21:41:22;1.63;;;1.48;;
32329;SDS011;18807;52.434;13.238;2022-09-01T21:56:31;1.67;;;1.33;;
32329;SDS011;18807;52.434;13.238;2022-09-01T22:04:05;1.92;;;1.38;;
32329;SDS011;18807;52.434;13.238;2022-09-01T22:11:40;2.00;;;1.60;;
32329;SDS011;18807;52.434;13.238;2022-09-01T22:19:15;2.05;;;1.40;;
32329;SDS011;18807;52.434;13.238;2022-09-01T22:26:52;1.52;;;1.33;;
32329;SDS011;18807;52.434;13.238;2022-09-01T22:42:01;1.10;;;1.00;;
32329;SDS011;18807;52.434;13.238;2022-09-01T22:49:35;3.83;;;1.55;;
32329;SDS011;18807;52.434;13.238;2022-09-01T22:57:10;1.30;;;1.17;;
32329;SDS011;18807;52.434;13.238;2022-09-01T23:12:19;1.20;;;1.10;;
32329;SDS011;18807;52.434;13.238;2022-09-01T23:19:53;1.50;;;1.20;;
32329;SDS011;18807;52.434;13.238;2022-09-01T23:27:29;2.13;;;1.23;;
32329;SDS011;18807;52.434;13.238;2022-09-01T23:35:03;1.42;;;1.20;;
32329;SDS011;18807;52.434;13.238;2022-09-01T23:42:39;1.57;;;1.13;;
32329;SDS011;18807;52.434;13.238;2022-09-01T23:50:13;2.85;;;1.08;;
32329;SDS011;18807;52.434;13.238;2022-09-01T23:57:49;1.08;;;0.98;;
